createdAt,value
2018-12-18T00:00:28.889Z,2.57
2018-12-18T00:02:56.919Z,3.70
2018-12-18T00:05:30.440Z,2.90
2018-12-18T00:07:58.594Z,3.33
2018-12-18T00:10:30.769Z,3.60
2018-12-18T00:12:58.397Z,3.60
2018-12-18T00:15:26.607Z,3.17
2018-12-18T00:17:55.077Z,4.00
2018-12-18T00:20:23.203Z,3.67
2018-12-18T00:22:50.915Z,3.00
2018-12-18T00:25:18.800Z,3.10
2018-12-18T00:27:47.135Z,3.60
2018-12-18T00:30:14.886Z,3.53
2018-12-18T00:32:42.793Z,3.30
2018-12-18T00:35:11.029Z,3.10
2018-12-18T00:37:39.317Z,3.10
2018-12-18T00:40:07.890Z,3.70
2018-12-18T00:42:35.659Z,2.97
2018-12-18T00:45:04.095Z,3.73
2018-12-18T00:47:31.772Z,3.20
2018-12-18T00:49:59.581Z,3.17
2018-12-18T00:52:27.361Z,2.93
2018-12-18T00:54:55.141Z,3.23
2018-12-18T00:57:22.994Z,2.90
2018-12-18T00:59:51.538Z,2.73
2018-12-18T01:02:19.206Z,3.10
2018-12-18T01:04:46.903Z,3.27
2018-12-18T01:07:14.903Z,2.93
2018-12-18T01:09:42.634Z,3.33
2018-12-18T01:12:10.476Z,2.80
2018-12-18T01:14:38.260Z,3.13
2018-12-18T01:17:05.928Z,3.10
2018-12-18T01:19:33.630Z,2.50
2018-12-18T01:22:01.240Z,3.00
2018-12-18T01:24:28.835Z,3.27
2018-12-18T01:26:56.452Z,2.97
2018-12-18T01:29:24.033Z,3.60
2018-12-18T01:31:51.709Z,2.83
2018-12-18T01:34:19.220Z,2.70
2018-12-18T01:36:46.815Z,2.63
2018-12-18T01:39:14.486Z,2.90
2018-12-18T01:41:42.153Z,2.77
2018-12-18T01:44:09.720Z,2.60
2018-12-18T01:46:37.299Z,3.20
2018-12-18T01:49:04.874Z,2.97
2018-12-18T01:51:32.615Z,2.40
2018-12-18T01:54:06.781Z,3.20
2018-12-18T01:56:34.356Z,2.70
2018-12-18T01:59:01.951Z,2.87
2018-12-18T02:01:29.535Z,3.00
2018-12-18T02:03:57.123Z,3.10
2018-12-18T02:06:24.749Z,2.67
2018-12-18T02:08:52.344Z,2.67
2018-12-18T02:11:19.938Z,3.17
2018-12-18T02:13:47.572Z,2.60
2018-12-18T02:16:15.148Z,3.30
2018-12-18T02:18:42.756Z,2.60
2018-12-18T02:21:10.346Z,2.70
2018-12-18T02:23:38.065Z,2.50
2018-12-18T02:26:05.637Z,2.80
2018-12-18T02:28:33.323Z,2.50
2018-12-18T02:31:00.988Z,2.53
2018-12-18T02:33:28.551Z,2.50
2018-12-18T02:35:56.125Z,2.77
2018-12-18T02:38:23.788Z,3.03
2018-12-18T02:40:51.407Z,3.10
2018-12-18T02:43:18.985Z,2.47
2018-12-18T02:45:46.594Z,2.87
2018-12-18T02:48:14.196Z,2.57
2018-12-18T02:50:41.766Z,2.50
2018-12-18T02:53:09.354Z,2.20
2018-12-18T02:55:36.911Z,2.50
2018-12-18T02:58:04.530Z,2.97
2018-12-18T03:00:32.097Z,2.20
2018-12-18T03:02:59.744Z,2.60
2018-12-18T03:05:27.297Z,2.30
2018-12-18T03:07:54.825Z,2.50
2018-12-18T03:10:22.491Z,2.50
2018-12-18T03:12:50.028Z,3.20
2018-12-18T03:15:17.617Z,2.90
2018-12-18T03:17:45.220Z,2.40
2018-12-18T03:20:12.768Z,2.73
2018-12-18T03:22:40.361Z,1.97
2018-12-18T03:25:07.976Z,2.67
2018-12-18T03:27:35.516Z,2.50
2018-12-18T03:30:03.266Z,2.33
2018-12-18T03:32:35.487Z,2.43
2018-12-18T03:35:03.232Z,2.13
2018-12-18T03:37:30.861Z,2.60
2018-12-18T03:39:58.492Z,1.80
2018-12-18T03:42:26.126Z,2.50
2018-12-18T03:44:53.727Z,2.00
2018-12-18T03:47:21.333Z,2.70
2018-12-18T03:49:49.062Z,2.30
2018-12-18T03:52:16.608Z,2.50
2018-12-18T03:54:44.206Z,2.20
2018-12-18T03:57:11.799Z,2.60
2018-12-18T03:59:39.432Z,2.70
2018-12-18T04:02:07.080Z,2.30
2018-12-18T04:04:35.865Z,2.47
2018-12-18T04:07:03.623Z,2.30
2018-12-18T04:09:31.317Z,2.20
2018-12-18T04:12:04.425Z,2.60
2018-12-18T04:14:32.069Z,2.47
2018-12-18T04:16:59.656Z,2.37
2018-12-18T04:19:27.238Z,2.70
2018-12-18T04:21:54.877Z,2.10
2018-12-18T04:24:22.656Z,2.40
2018-12-18T04:26:50.203Z,2.40
2018-12-18T04:29:17.933Z,2.67
2018-12-18T04:31:45.496Z,2.80
2018-12-18T04:34:13.064Z,2.33
2018-12-18T04:36:40.696Z,2.67
2018-12-18T04:39:08.323Z,2.20
2018-12-18T04:41:35.860Z,2.30
2018-12-18T04:44:03.483Z,2.80
2018-12-18T04:46:31.079Z,2.33
2018-12-18T04:48:58.666Z,3.07
2018-12-18T04:51:26.255Z,2.47
2018-12-18T04:53:53.881Z,2.27
2018-12-18T04:56:21.474Z,2.53
2018-12-18T04:58:49.063Z,2.60
2018-12-18T05:01:16.637Z,2.50
2018-12-18T05:03:44.221Z,2.90
2018-12-18T05:06:11.817Z,2.43
2018-12-18T05:08:39.438Z,2.23
2018-12-18T05:11:07.029Z,2.87
2018-12-18T05:13:34.748Z,2.63
2018-12-18T05:16:02.327Z,2.43
2018-12-18T05:18:29.916Z,2.17
2018-12-18T05:20:57.507Z,2.30
2018-12-18T05:23:25.085Z,2.30
2018-12-18T05:25:52.659Z,2.63
2018-12-18T05:28:20.256Z,1.90
2018-12-18T05:30:47.889Z,2.37
2018-12-18T05:33:15.513Z,2.53
2018-12-18T05:35:43.089Z,2.30
2018-12-18T05:38:10.690Z,2.90
2018-12-18T05:40:38.528Z,2.40
2018-12-18T05:43:06.148Z,2.70
2018-12-18T05:45:33.809Z,2.10
2018-12-18T05:48:02.789Z,2.60
2018-12-18T05:50:30.417Z,2.80
2018-12-18T05:52:57.964Z,2.53
2018-12-18T05:55:25.567Z,2.43
2018-12-18T05:57:53.186Z,2.50
2018-12-18T06:00:20.793Z,3.20
2018-12-18T06:02:48.451Z,2.33
2018-12-18T06:05:16.006Z,2.00
2018-12-18T06:07:43.608Z,2.90
2018-12-18T06:10:11.198Z,2.50
2018-12-18T06:12:38.748Z,2.37
2018-12-18T06:15:06.428Z,2.80
2018-12-18T06:17:33.976Z,2.47
2018-12-18T06:20:01.605Z,2.50
2018-12-18T06:22:29.331Z,2.60
2018-12-18T06:24:56.878Z,2.90
2018-12-18T06:27:24.517Z,2.40
2018-12-18T06:32:51.778Z,3.33
2018-12-18T06:35:20.348Z,2.70
2018-12-18T06:37:48.181Z,3.80
2018-12-18T06:40:16.751Z,2.80
2018-12-18T06:42:45.199Z,3.03
2018-12-18T06:45:14.283Z,3.70
2018-12-18T06:47:42.642Z,3.00
2018-12-18T06:50:11.459Z,2.70
2018-12-18T06:52:39.832Z,2.80
2018-12-18T06:55:11.045Z,2.63
2018-12-18T06:57:40.155Z,2.50
2018-12-18T07:00:11.112Z,2.70
2018-12-18T07:02:39.726Z,3.90
2018-12-18T07:05:08.076Z,2.63
2018-12-18T07:07:36.390Z,2.60
2018-12-18T07:10:05.517Z,2.23
2018-12-18T07:12:33.844Z,3.17
2018-12-18T07:15:02.878Z,2.77
2018-12-18T07:17:31.165Z,2.33
2018-12-18T07:19:59.546Z,2.37
2018-12-18T07:22:27.108Z,3.00
2018-12-18T07:24:54.703Z,3.23
2018-12-18T07:27:22.294Z,3.77
2018-12-18T07:29:49.821Z,3.87
2018-12-18T07:32:17.407Z,4.03
2018-12-18T07:34:45.022Z,3.00
2018-12-18T07:37:12.636Z,3.00
2018-12-18T07:39:40.208Z,3.77
2018-12-18T07:42:07.895Z,3.20
2018-12-18T07:44:35.513Z,2.80
2018-12-18T07:47:03.105Z,2.80
2018-12-18T07:49:30.681Z,2.53
2018-12-18T07:51:58.302Z,3.30
2018-12-18T07:54:25.916Z,3.00
2018-12-18T07:56:53.531Z,2.60
2018-12-18T07:59:21.095Z,3.37
2018-12-18T08:01:48.700Z,3.00
2018-12-18T08:04:16.261Z,2.20
2018-12-18T08:06:43.987Z,2.70
2018-12-18T08:09:11.595Z,2.60
2018-12-18T08:11:39.229Z,2.87
2018-12-18T08:14:06.870Z,2.90
2018-12-18T08:16:34.499Z,2.63
2018-12-18T08:19:02.167Z,2.80
2018-12-18T08:21:29.728Z,2.43
2018-12-18T08:23:57.313Z,2.40
2018-12-18T08:26:24.880Z,2.33
2018-12-18T08:28:52.480Z,2.70
2018-12-18T08:31:20.837Z,2.50
2018-12-18T08:33:49.178Z,2.57
2018-12-18T08:36:17.551Z,3.20
2018-12-18T08:38:45.859Z,2.60
2018-12-18T08:41:14.440Z,2.37
2018-12-18T08:43:42.779Z,2.50
2018-12-18T08:46:11.153Z,2.47
2018-12-18T08:48:39.526Z,2.13
2018-12-18T08:51:07.841Z,2.53
2018-12-18T08:53:36.172Z,2.70
2018-12-18T08:56:04.515Z,2.93
2018-12-18T08:58:32.916Z,2.63
2018-12-18T09:01:01.310Z,2.67
2018-12-18T09:03:29.692Z,4.03
2018-12-18T09:05:57.972Z,2.03
2018-12-18T09:08:26.452Z,2.80
2018-12-18T09:10:54.768Z,2.10
2018-12-18T09:13:23.155Z,2.30
2018-12-18T09:15:57.125Z,2.30
2018-12-18T09:18:25.672Z,2.60
2018-12-18T09:20:53.271Z,2.63
2018-12-18T09:23:20.847Z,2.43
2018-12-18T09:25:48.411Z,2.43
2018-12-18T09:28:16.000Z,2.40
2018-12-18T09:30:43.639Z,2.30
2018-12-18T09:33:11.203Z,2.40
2018-12-18T09:35:38.868Z,2.67
2018-12-18T09:38:12.019Z,2.50
2018-12-18T09:40:45.238Z,2.47
2018-12-18T09:43:18.396Z,2.03
2018-12-18T09:45:46.000Z,2.37
2018-12-18T09:48:13.586Z,2.47
2018-12-18T09:50:41.123Z,2.00
2018-12-18T09:53:08.883Z,1.90
2018-12-18T09:55:36.451Z,2.57
2018-12-18T09:58:08.587Z,2.13
2018-12-18T10:00:36.191Z,1.83
2018-12-18T10:03:03.822Z,2.20
2018-12-18T10:05:31.426Z,2.53
2018-12-18T10:07:59.042Z,1.80
2018-12-18T10:10:26.625Z,2.20
2018-12-18T10:12:54.290Z,2.20
2018-12-18T10:15:21.992Z,2.50
2018-12-18T10:17:49.576Z,2.40
2018-12-18T10:20:17.116Z,2.30
2018-12-18T10:22:44.731Z,2.50
2018-12-18T10:25:12.355Z,2.30
2018-12-18T10:27:39.907Z,1.97
2018-12-18T10:30:07.582Z,2.10
2018-12-18T10:32:35.214Z,2.40
2018-12-18T10:35:02.797Z,2.50
2018-12-18T10:37:30.404Z,2.00
2018-12-18T10:39:57.966Z,2.23
2018-12-18T10:42:25.654Z,2.03
2018-12-18T10:44:53.221Z,2.23
2018-12-18T10:47:20.821Z,2.30
2018-12-18T10:49:48.469Z,2.70
2018-12-18T10:52:16.060Z,1.83
2018-12-18T10:54:43.672Z,1.80
2018-12-18T10:57:11.293Z,2.30
2018-12-18T10:59:39.019Z,2.27
2018-12-18T11:02:06.600Z,2.30
2018-12-18T11:04:34.222Z,1.93
2018-12-18T11:07:01.801Z,1.80
2018-12-18T11:09:29.492Z,2.20
2018-12-18T11:11:57.081Z,1.73
2018-12-18T11:14:24.694Z,2.00
2018-12-18T11:16:52.312Z,1.80
2018-12-18T11:19:19.922Z,2.07
2018-12-18T11:21:47.531Z,2.40
2018-12-18T11:24:15.112Z,1.70
2018-12-18T11:26:42.743Z,2.10
2018-12-18T11:29:10.346Z,1.90
2018-12-18T11:31:37.949Z,1.90
2018-12-18T11:34:05.581Z,2.43
2018-12-18T11:36:33.175Z,2.07
2018-12-18T11:39:00.767Z,2.00
2018-12-18T11:41:28.361Z,1.60
2018-12-18T11:43:55.967Z,2.07
2018-12-18T11:46:23.527Z,1.90
2018-12-18T11:48:51.179Z,4.30
2018-12-18T11:51:18.734Z,2.80
2018-12-18T11:53:46.376Z,1.90
2018-12-18T11:56:14.149Z,2.00
2018-12-18T11:58:41.873Z,2.00
2018-12-18T12:01:09.903Z,2.20
2018-12-18T12:03:37.600Z,2.80
2018-12-18T12:06:05.337Z,2.40
2018-12-18T12:08:33.192Z,2.20
2018-12-18T12:11:00.751Z,2.07
2018-12-18T12:13:28.317Z,2.27
2018-12-18T12:15:55.956Z,2.20
2018-12-18T12:18:23.547Z,2.27
2018-12-18T12:20:51.129Z,3.10
2018-12-18T12:23:19.061Z,2.97
2018-12-18T12:25:46.669Z,3.50
2018-12-18T12:28:14.287Z,3.03
2018-12-18T12:30:42.628Z,3.80
2018-12-18T12:33:11.047Z,3.70
2018-12-18T12:35:39.374Z,3.70
2018-12-18T12:38:07.803Z,5.10
2018-12-18T12:40:36.328Z,3.70
2018-12-18T12:43:04.586Z,3.40
2018-12-18T12:45:32.962Z,3.67
2018-12-18T12:48:03.430Z,3.53
2018-12-18T12:50:32.509Z,3.60
2018-12-18T12:53:01.752Z,3.57
2018-12-18T12:55:30.745Z,4.83
2018-12-18T12:57:59.678Z,3.87
2018-12-18T13:00:28.768Z,3.30
2018-12-18T13:02:57.737Z,3.40
2018-12-18T13:05:26.633Z,3.27
2018-12-18T13:07:56.293Z,4.17
2018-12-18T13:10:25.678Z,3.10
2018-12-18T13:12:54.835Z,3.20
2018-12-18T13:15:24.025Z,3.00
2018-12-18T13:17:53.047Z,3.07
2018-12-18T13:20:22.026Z,3.43
2018-12-18T13:22:51.047Z,3.73
2018-12-18T13:25:20.061Z,3.50
2018-12-18T13:27:49.053Z,3.30
2018-12-18T13:30:18.169Z,3.87
2018-12-18T13:32:47.190Z,3.47
2018-12-18T13:35:16.331Z,4.50
2018-12-18T13:37:45.283Z,4.43
2018-12-18T13:40:14.232Z,3.60
2018-12-18T13:42:43.415Z,3.43
2018-12-18T13:45:12.435Z,3.30
2018-12-18T13:47:41.394Z,4.00
2018-12-18T13:50:10.569Z,3.60
2018-12-18T13:52:38.179Z,3.57
2018-12-18T13:55:05.747Z,2.90
2018-12-18T13:57:33.342Z,3.33
2018-12-18T14:00:00.929Z,3.70
2018-12-18T14:02:28.517Z,4.27
2018-12-18T14:04:56.123Z,4.23
2018-12-18T14:07:23.729Z,3.63
2018-12-18T14:09:51.578Z,3.73
2018-12-18T14:12:19.325Z,3.40
2018-12-18T14:14:46.905Z,3.20
2018-12-18T14:17:14.466Z,3.33
2018-12-18T14:19:42.094Z,3.77
2018-12-18T14:22:09.663Z,2.87
2018-12-18T14:24:37.382Z,3.53
2018-12-18T14:27:04.984Z,3.00
2018-12-18T14:29:32.563Z,3.17
2018-12-18T14:32:00.221Z,3.70
2018-12-18T14:34:27.775Z,3.10
2018-12-18T14:36:56.362Z,3.03
2018-12-18T14:39:24.256Z,3.50
2018-12-18T14:41:51.903Z,2.60
2018-12-18T14:44:19.561Z,2.47
2018-12-18T14:46:47.109Z,3.73
2018-12-18T14:49:14.813Z,3.10
2018-12-18T14:51:42.388Z,3.03
2018-12-18T14:54:10.187Z,3.17
2018-12-18T14:56:37.754Z,3.30
2018-12-18T14:59:05.397Z,3.23
2018-12-18T15:01:32.945Z,3.43
2018-12-18T15:04:00.531Z,3.07
2018-12-18T15:06:28.095Z,3.13
2018-12-18T15:08:55.640Z,2.90
2018-12-18T15:11:23.213Z,2.30
2018-12-18T15:13:50.752Z,2.90
2018-12-18T15:16:18.475Z,3.03
2018-12-18T15:18:46.059Z,3.63
2018-12-18T15:21:13.660Z,2.70
2018-12-18T15:23:41.253Z,2.97
2018-12-18T15:26:08.817Z,3.17
2018-12-18T15:28:36.462Z,2.50
2018-12-18T15:31:04.039Z,2.50
2018-12-18T15:33:31.605Z,3.40
2018-12-18T15:35:59.630Z,3.00
2018-12-18T15:38:27.253Z,2.77
2018-12-18T15:40:54.848Z,2.47
2018-12-18T15:43:22.512Z,2.60
2018-12-18T15:45:50.111Z,2.60
2018-12-18T15:48:17.720Z,3.43
2018-12-18T15:50:45.423Z,2.90
2018-12-18T15:53:13.000Z,2.20
2018-12-18T15:55:40.584Z,2.70
2018-12-18T15:58:08.157Z,2.50
2018-12-18T16:00:35.776Z,2.67
2018-12-18T16:03:03.445Z,2.97
2018-12-18T16:05:31.012Z,1.93
2018-12-18T16:07:58.606Z,2.97
2018-12-18T16:10:26.300Z,2.77
2018-12-18T16:12:53.930Z,2.83
2018-12-18T16:15:21.539Z,3.10
2018-12-18T16:17:49.263Z,2.90
2018-12-18T16:20:16.821Z,2.43
2018-12-18T16:22:44.368Z,2.73
2018-12-18T16:25:13.852Z,2.00
2018-12-18T16:27:44.530Z,2.40
2018-12-18T16:30:13.920Z,2.60
2018-12-18T16:32:43.006Z,3.33
2018-12-18T16:35:12.113Z,2.63
2018-12-18T16:37:41.376Z,3.40
2018-12-18T16:40:08.997Z,2.47
2018-12-18T16:42:36.765Z,2.83
2018-12-18T16:45:04.891Z,2.90
2018-12-18T16:47:32.472Z,2.80
2018-12-18T16:50:00.106Z,2.60
2018-12-18T16:52:27.664Z,2.50
2018-12-18T16:54:55.258Z,2.80
2018-12-18T16:57:22.823Z,2.43
2018-12-18T16:59:50.356Z,2.90
2018-12-18T17:02:18.141Z,2.97
2018-12-18T17:04:45.724Z,2.60
2018-12-18T17:07:13.331Z,3.13
2018-12-18T17:09:41.039Z,3.03
2018-12-18T17:12:09.390Z,2.93
2018-12-18T17:14:37.041Z,2.60
2018-12-18T17:17:04.741Z,3.50
2018-12-18T17:19:46.548Z,3.03
2018-12-18T17:22:14.938Z,2.70
2018-12-18T17:24:51.225Z,3.60
2018-12-18T17:27:20.149Z,3.33
2018-12-18T17:29:50.232Z,3.20
2018-12-18T17:32:17.953Z,4.27
2018-12-18T17:34:45.636Z,4.23
2018-12-18T17:37:13.266Z,2.80
2018-12-18T17:39:40.895Z,3.20
2018-12-18T17:42:08.587Z,3.17
2018-12-18T17:44:36.294Z,3.50
2018-12-18T17:47:04.002Z,3.37
2018-12-18T17:49:31.537Z,2.90
2018-12-18T17:51:59.126Z,3.00
2018-12-18T17:54:26.792Z,2.93
2018-12-18T17:56:54.450Z,3.00
2018-12-18T17:59:22.041Z,3.10
2018-12-18T18:01:49.618Z,2.57
2018-12-18T18:04:17.263Z,2.77
2018-12-18T18:06:44.987Z,2.97
2018-12-18T18:09:12.588Z,2.90
2018-12-18T18:11:40.159Z,2.67
2018-12-18T18:14:07.757Z,3.43
2018-12-18T18:16:35.373Z,2.53
2018-12-18T18:19:03.134Z,2.57
2018-12-18T18:21:30.727Z,2.80
2018-12-18T18:23:58.343Z,3.27
2018-12-18T18:26:27.739Z,3.67
2018-12-18T18:28:56.726Z,3.60
2018-12-18T18:31:25.762Z,3.70
2018-12-18T18:33:54.711Z,3.17
2018-12-18T18:36:23.721Z,3.47
2018-12-18T18:38:52.646Z,2.97
2018-12-18T18:41:21.691Z,3.53
2018-12-18T18:43:50.688Z,3.23
2018-12-18T18:46:19.840Z,3.40
2018-12-18T18:48:48.802Z,3.77
2018-12-18T18:51:17.755Z,3.07
2018-12-18T18:53:46.771Z,3.10
2018-12-18T18:56:14.502Z,3.10
2018-12-18T18:58:42.035Z,2.83
2018-12-18T19:01:09.620Z,3.03
2018-12-18T19:03:37.244Z,3.13
2018-12-18T19:06:04.792Z,2.90
2018-12-18T19:08:32.594Z,2.80
2018-12-18T19:11:00.180Z,2.50
2018-12-18T19:13:29.444Z,3.17
2018-12-18T19:15:58.625Z,3.27
2018-12-18T19:18:27.640Z,2.83
2018-12-18T19:20:56.654Z,3.30
2018-12-18T19:23:25.733Z,2.80
2018-12-18T19:25:54.775Z,2.97
2018-12-18T19:28:24.041Z,3.10
2018-12-18T19:30:53.173Z,2.40
2018-12-18T19:33:22.371Z,2.80
2018-12-18T19:35:51.543Z,3.00
2018-12-18T19:38:20.781Z,3.00
2018-12-18T19:40:50.390Z,3.20
2018-12-18T19:43:19.718Z,3.63
2018-12-18T19:45:48.519Z,3.27
2018-12-18T19:48:18.410Z,3.10
2018-12-18T19:50:47.599Z,3.43
2018-12-18T19:53:17.133Z,3.00
2018-12-18T19:55:45.950Z,3.07
2018-12-18T19:58:14.920Z,3.60
2018-12-18T20:00:43.960Z,3.17
2018-12-18T20:03:11.626Z,3.13
2018-12-18T20:05:39.248Z,3.50
2018-12-18T20:08:10.029Z,2.97
2018-12-18T20:10:36.523Z,2.57
2018-12-18T20:13:05.125Z,2.20
2018-12-18T20:15:32.846Z,2.90
2018-12-18T20:18:00.519Z,3.30
2018-12-18T20:20:28.110Z,3.70
2018-12-18T20:22:55.772Z,2.90
2018-12-18T20:25:23.333Z,2.97
2018-12-18T20:27:50.916Z,3.00
2018-12-18T20:30:18.556Z,3.10
2018-12-18T20:32:46.280Z,2.53
2018-12-18T20:35:15.042Z,3.63
2018-12-18T20:37:42.683Z,2.40
2018-12-18T20:40:11.684Z,3.93
2018-12-18T20:42:40.306Z,2.90
2018-12-18T20:45:09.426Z,2.57
2018-12-18T20:47:37.902Z,2.90
2018-12-18T20:50:07.033Z,2.43
2018-12-18T20:52:35.430Z,3.73
2018-12-18T20:55:04.632Z,2.70
2018-12-18T20:57:32.888Z,2.77
2018-12-18T21:00:01.506Z,2.40
2018-12-18T21:02:29.796Z,2.30
2018-12-18T21:04:58.516Z,2.37
2018-12-18T21:07:26.298Z,2.47
2018-12-18T21:09:54.662Z,2.53
2018-12-18T21:12:23.241Z,3.20
2018-12-18T21:14:50.934Z,2.20
2018-12-18T21:17:19.079Z,3.13
2018-12-18T21:19:46.712Z,2.60
2018-12-18T21:22:15.509Z,2.40
2018-12-18T21:24:43.984Z,2.47
2018-12-18T21:27:11.645Z,2.13
2018-12-18T21:29:39.356Z,2.47
2018-12-18T21:32:07.850Z,2.17
2018-12-18T21:34:36.340Z,2.20
2018-12-18T21:37:04.535Z,2.20
2018-12-18T21:39:33.319Z,2.27
2018-12-18T21:42:01.161Z,2.43
2018-12-18T21:44:30.284Z,3.10
2018-12-18T21:46:58.622Z,2.40
2018-12-18T21:49:27.611Z,3.10
2018-12-18T21:51:55.589Z,2.40
2018-12-18T21:54:24.009Z,2.40
2018-12-18T21:56:52.180Z,2.40
2018-12-18T21:59:21.435Z,2.13
2018-12-18T22:01:50.918Z,1.93
2018-12-18T22:04:19.295Z,2.93
2018-12-18T22:06:48.048Z,2.50
2018-12-18T22:29:24.907Z,2.27
2018-12-18T22:31:52.714Z,1.80
2018-12-18T22:34:20.400Z,2.47
2018-12-18T22:36:48.858Z,2.20
2018-12-18T22:47:54.749Z,2.50
2018-12-18T22:50:23.373Z,1.90
2018-12-18T22:52:50.954Z,1.73
2018-12-18T22:55:18.589Z,1.77
2018-12-18T22:57:46.229Z,2.53
2018-12-18T23:00:18.477Z,2.27
2018-12-18T23:02:47.169Z,1.90
2018-12-18T23:05:14.788Z,2.00
2018-12-18T23:07:42.426Z,1.90
2018-12-18T23:10:10.010Z,1.63
2018-12-18T23:12:37.617Z,2.07
2018-12-18T23:15:05.526Z,1.93
2018-12-18T23:17:39.027Z,1.90
2018-12-18T23:20:16.395Z,2.80
2018-12-18T23:22:44.040Z,2.30
2018-12-18T23:25:12.055Z,3.57
2018-12-18T23:27:41.031Z,2.87
2018-12-18T23:30:08.789Z,2.20
2018-12-18T23:32:36.486Z,2.53
2018-12-18T23:35:04.150Z,1.90
2018-12-18T23:37:32.514Z,1.53
2018-12-18T23:40:00.824Z,2.07
2018-12-18T23:42:29.220Z,2.07
2018-12-18T23:44:57.501Z,1.80
2018-12-18T23:49:53.634Z,1.93
2018-12-18T23:52:21.587Z,2.00
2018-12-18T23:54:49.277Z,2.20
2018-12-18T23:57:17.154Z,2.10
2018-12-18T23:59:44.810Z,1.60
